createdAt,value
2022-09-10T00:01:03.916Z,0.80
2022-09-10T00:03:31.790Z,0.90
2022-09-10T00:05:59.718Z,1.00
2022-09-10T00:08:27.555Z,0.88
2022-09-10T00:10:55.287Z,0.82
2022-09-10T00:13:23.528Z,1.10
2022-09-10T00:15:53.614Z,0.80
2022-09-10T00:18:23.738Z,1.00
2022-09-10T00:20:53.850Z,0.90
2022-09-10T00:23:24.169Z,0.90
2022-09-10T00:25:53.320Z,0.80
2022-09-10T00:28:22.473Z,0.63
2022-09-10T00:30:52.883Z,0.90
2022-09-10T00:33:23.202Z,0.82
2022-09-10T00:35:51.230Z,0.80
2022-09-10T00:38:19.351Z,0.82
2022-09-10T00:40:47.580Z,1.00
2022-09-10T00:43:18.649Z,0.88
2022-09-10T00:45:51.269Z,0.90
2022-09-10T00:48:23.473Z,0.90
2022-09-10T00:50:52.174Z,1.00
2022-09-10T00:53:23.983Z,0.93
2022-09-10T00:55:55.643Z,0.80
2022-09-10T00:58:25.670Z,1.00
2022-09-10T01:00:57.358Z,0.90
2022-09-10T01:03:26.661Z,1.10
2022-09-10T01:05:54.959Z,0.90
2022-09-10T01:08:22.919Z,0.80
2022-09-10T01:11:11.170Z,1.10
2022-09-10T01:13:49.471Z,1.20
2022-09-10T01:16:24.754Z,1.15
2022-09-10T01:19:00.674Z,0.90
2022-09-10T01:21:33.569Z,0.95
2022-09-10T01:24:44.959Z,0.95
2022-09-10T01:27:43.103Z,0.95
2022-09-10T01:30:15.609Z,1.27
2022-09-10T01:32:56.537Z,0.90
2022-09-10T01:35:31.947Z,1.10
2022-09-10T01:38:04.569Z,1.08
2022-09-10T01:40:35.009Z,1.00
2022-09-10T01:43:07.041Z,1.10
2022-09-10T01:45:41.730Z,1.02
2022-09-10T01:48:29.828Z,1.02
2022-09-10T01:51:08.817Z,1.20
2022-09-10T01:53:53.951Z,1.13
2022-09-10T01:56:35.630Z,1.05
2022-09-10T01:59:14.094Z,0.98
2022-09-10T02:01:45.917Z,0.95
2022-09-10T02:04:15.915Z,1.25
2022-09-10T02:06:47.746Z,1.17
2022-09-10T02:09:17.530Z,1.08
2022-09-10T02:11:47.235Z,1.00
2022-09-10T02:14:17.113Z,1.00
2022-09-10T02:16:48.401Z,0.90
2022-09-10T02:19:17.382Z,1.10
2022-09-10T02:21:45.439Z,1.20
2022-09-10T02:24:14.504Z,1.00
2022-09-10T02:26:43.890Z,0.90
2022-09-10T02:29:15.290Z,1.02
2022-09-10T02:31:44.710Z,1.05
2022-09-10T02:34:12.547Z,0.82
2022-09-10T02:36:40.425Z,1.00
2022-09-10T02:39:08.165Z,1.10
2022-09-10T02:41:37.569Z,1.10
2022-09-10T02:44:05.750Z,0.90
2022-09-10T02:46:33.622Z,1.10
2022-09-10T02:49:03.008Z,1.00
2022-09-10T02:51:30.787Z,1.08
2022-09-10T02:53:58.586Z,1.20
2022-09-10T02:56:26.360Z,1.08
2022-09-10T02:58:54.168Z,1.05
2022-09-10T03:01:23.861Z,1.10
2022-09-10T03:03:53.658Z,1.27
2022-09-10T03:06:24.026Z,1.15
2022-09-10T03:08:55.142Z,1.20
2022-09-10T03:11:23.825Z,1.00
2022-09-10T03:13:52.054Z,1.00
2022-09-10T03:16:20.859Z,1.20
2022-09-10T03:18:49.074Z,1.15
2022-09-10T03:21:20.107Z,1.02
2022-09-10T03:23:50.911Z,0.90
2022-09-10T03:26:20.558Z,1.30
2022-09-10T03:28:50.009Z,1.20
2022-09-10T03:31:19.008Z,1.10
2022-09-10T03:33:47.018Z,1.10
2022-09-10T03:36:14.976Z,1.13
2022-09-10T03:38:44.077Z,1.30
2022-09-10T03:41:13.539Z,1.10
2022-09-10T03:43:41.277Z,1.13
2022-09-10T03:46:10.767Z,1.10
2022-09-10T03:48:39.334Z,1.02
2022-09-10T03:51:07.591Z,1.20
2022-09-10T03:53:35.784Z,1.27
2022-09-10T03:56:03.785Z,1.10
2022-09-10T03:58:32.908Z,1.30
2022-09-10T04:01:00.772Z,1.15
2022-09-10T04:03:28.549Z,1.10
2022-09-10T04:05:56.298Z,1.10
2022-09-10T04:08:24.093Z,1.00
2022-09-10T04:10:51.858Z,1.08
2022-09-10T04:13:19.730Z,1.10
2022-09-10T04:15:48.817Z,0.80
2022-09-10T04:18:16.559Z,0.90
2022-09-10T04:20:47.895Z,1.20
2022-09-10T04:23:16.904Z,1.00
2022-09-10T04:25:44.654Z,1.00
2022-09-10T04:28:12.428Z,0.98
2022-09-10T04:30:40.878Z,1.00
2022-09-10T04:33:11.526Z,1.00
2022-09-10T04:35:40.370Z,0.90
2022-09-10T04:38:08.138Z,1.17
2022-09-10T04:40:35.999Z,1.00
2022-09-10T04:43:04.764Z,0.97
2022-09-10T04:45:34.620Z,1.00
2022-09-10T04:48:06.819Z,1.00
2022-09-10T04:50:36.524Z,1.00
2022-09-10T04:53:04.291Z,1.10
2022-09-10T04:55:33.189Z,1.05
2022-09-10T04:58:01.015Z,1.20
2022-09-10T05:00:28.747Z,1.10
2022-09-10T05:02:56.512Z,1.00
2022-09-10T05:05:24.312Z,0.90
2022-09-10T05:07:53.991Z,1.13
2022-09-10T05:10:23.387Z,0.90
2022-09-10T05:12:51.145Z,0.90
2022-09-10T05:15:18.909Z,1.10
2022-09-10T05:17:47.583Z,1.00
2022-09-10T05:20:15.568Z,0.98
2022-09-10T05:22:43.735Z,0.90
2022-09-10T05:25:12.923Z,1.17
2022-09-10T05:27:42.144Z,1.10
2022-09-10T05:30:11.009Z,1.10
2022-09-10T05:32:40.028Z,1.07
2022-09-10T05:35:09.147Z,1.00
2022-09-10T05:37:37.193Z,1.00
2022-09-10T05:40:06.007Z,0.98
2022-09-10T05:42:35.577Z,1.10
2022-09-10T05:45:03.350Z,1.00
2022-09-10T05:47:31.115Z,1.10
2022-09-10T05:49:58.879Z,0.90
2022-09-10T05:52:26.618Z,1.10
2022-09-10T05:54:56.413Z,1.00
2022-09-10T05:57:24.296Z,0.90
2022-09-10T05:59:53.788Z,0.90
2022-09-10T06:02:24.105Z,0.90
2022-09-10T06:04:52.186Z,0.97
2022-09-10T06:07:19.958Z,1.10
2022-09-10T06:09:47.687Z,0.90
2022-09-10T06:12:17.051Z,0.90
2022-09-10T06:14:44.790Z,1.20
2022-09-10T06:17:13.933Z,1.30
2022-09-10T06:19:44.499Z,1.00
2022-09-10T06:22:12.671Z,1.10
2022-09-10T06:24:40.626Z,1.20
2022-09-10T06:27:08.528Z,1.05
2022-09-10T06:29:37.042Z,1.30
2022-09-10T06:32:05.167Z,1.30
2022-09-10T06:34:35.906Z,1.23
2022-09-10T06:37:05.990Z,1.30
2022-09-10T06:39:34.004Z,1.50
2022-09-10T06:42:02.063Z,1.90
2022-09-10T06:44:30.203Z,1.50
2022-09-10T06:47:35.894Z,1.87
2022-09-10T06:49:47.282Z,1.70
2022-09-10T06:52:15.165Z,1.17
2022-09-10T06:54:42.975Z,1.50
2022-09-10T06:57:11.337Z,1.30
2022-09-10T06:59:39.074Z,1.30
2022-09-10T07:02:07.105Z,1.48
2022-09-10T07:04:34.890Z,1.20
2022-09-10T07:07:04.002Z,1.10
2022-09-10T07:09:31.841Z,1.27
2022-09-10T07:12:00.111Z,1.70
2022-09-10T07:14:27.995Z,1.70
2022-09-10T07:16:57.329Z,1.40
2022-09-10T07:19:25.382Z,1.98
2022-09-10T07:21:53.114Z,1.75
2022-09-10T07:24:22.208Z,1.48
2022-09-10T07:26:49.959Z,1.42
2022-09-10T07:29:19.015Z,1.27
2022-09-10T07:31:48.132Z,1.30
2022-09-10T07:34:16.287Z,1.23
2022-09-10T07:36:44.108Z,1.10
2022-09-10T07:39:11.867Z,1.00
2022-09-10T07:41:41.219Z,1.20
2022-09-10T07:44:09.055Z,0.95
2022-09-10T07:46:37.867Z,1.17
2022-09-10T07:49:06.215Z,1.00
2022-09-10T07:51:35.545Z,1.10
2022-09-10T07:54:03.692Z,0.85
2022-09-10T07:56:34.151Z,0.90
2022-09-10T07:59:03.510Z,0.82
2022-09-10T08:01:31.689Z,1.10
2022-09-10T08:03:59.587Z,1.10
2022-09-10T08:06:27.430Z,1.10
2022-09-10T08:08:55.196Z,1.00
2022-09-10T08:11:23.137Z,0.80
2022-09-10T08:13:52.755Z,0.90
2022-09-10T08:16:24.209Z,0.85
2022-09-10T08:18:52.205Z,0.95
2022-09-10T08:21:20.872Z,1.00
2022-09-10T08:23:50.734Z,1.00
2022-09-10T08:26:18.851Z,0.98
2022-09-10T08:28:47.258Z,1.00
2022-09-10T08:31:16.241Z,0.90
2022-09-10T08:33:49.258Z,1.10
2022-09-10T08:36:17.535Z,1.10
2022-09-10T08:38:46.100Z,0.93
2022-09-10T08:41:26.660Z,1.20
2022-09-10T08:43:59.210Z,1.00
2022-09-10T08:46:29.975Z,1.10
2022-09-10T08:49:07.967Z,1.10
2022-09-10T08:51:40.584Z,0.82
2022-09-10T08:54:14.954Z,1.10
2022-09-10T08:56:43.139Z,1.05
2022-09-10T08:59:21.397Z,0.95
2022-09-10T09:01:53.517Z,0.90
2022-09-10T09:04:33.111Z,0.98
2022-09-10T09:07:07.283Z,1.10
2022-09-10T09:09:35.048Z,1.02
2022-09-10T09:12:16.149Z,1.10
2022-09-10T09:14:53.681Z,1.00
2022-09-10T09:17:34.374Z,0.80
2022-09-10T09:20:15.117Z,0.90
2022-09-10T09:22:51.745Z,1.00
2022-09-10T09:25:24.496Z,0.90
2022-09-10T09:27:56.153Z,0.93
2022-09-10T09:30:26.755Z,0.95
2022-09-10T09:33:05.534Z,0.80
2022-09-10T09:35:38.600Z,0.70
2022-09-10T09:38:19.026Z,1.00
2022-09-10T09:40:49.472Z,1.02
2022-09-10T09:43:26.889Z,1.00
2022-09-10T09:45:54.784Z,1.10
2022-09-10T09:48:24.391Z,0.90
2022-09-10T09:50:57.015Z,1.10
2022-09-10T09:53:26.971Z,0.70
2022-09-10T09:55:57.990Z,1.00
2022-09-10T09:58:36.859Z,1.00
2022-09-10T10:01:18.085Z,1.00
2022-09-10T10:03:51.529Z,0.95
2022-09-10T10:06:24.524Z,0.88
2022-09-10T10:09:01.319Z,0.95
2022-09-10T10:11:48.863Z,0.82
2022-09-10T10:14:36.148Z,0.90
2022-09-10T10:17:21.545Z,0.80
2022-09-10T10:19:59.558Z,1.05
2022-09-10T10:22:31.881Z,1.20
2022-09-10T10:25:00.907Z,1.00
2022-09-10T10:27:33.202Z,1.00
2022-09-10T10:30:04.859Z,1.00
2022-09-10T10:32:44.510Z,1.10
2022-09-10T10:35:33.610Z,1.00
2022-09-10T10:38:25.130Z,1.00
2022-09-10T10:41:05.362Z,0.93
2022-09-10T10:43:45.276Z,0.88
2022-09-10T10:46:18.623Z,0.98
2022-09-10T10:49:03.702Z,0.88
2022-09-10T10:51:44.007Z,1.00
2022-09-10T10:54:34.262Z,0.90
2022-09-10T10:57:13.504Z,0.90
2022-09-10T10:59:53.750Z,0.88
2022-09-10T11:02:29.107Z,0.80
2022-09-10T11:04:59.990Z,0.65
2022-09-10T11:07:35.007Z,0.90
2022-09-10T11:10:12.255Z,0.80
2022-09-10T11:12:46.323Z,0.73
2022-09-10T11:15:23.814Z,0.60
2022-09-10T11:17:58.440Z,0.60
2022-09-10T11:20:32.797Z,0.73
2022-09-10T11:23:23.711Z,0.80
2022-09-10T11:25:59.498Z,0.77
2022-09-10T11:28:31.012Z,0.75
2022-09-10T11:31:05.006Z,0.70
2022-09-10T11:33:41.774Z,0.60
2022-09-10T11:36:13.448Z,0.70
2022-09-10T11:38:48.674Z,0.70
2022-09-10T11:41:23.004Z,0.73
2022-09-10T11:43:55.246Z,0.77
2022-09-10T11:46:27.336Z,0.70
2022-09-10T11:49:03.444Z,0.77
2022-09-10T11:51:34.691Z,0.60
2022-09-10T11:54:03.731Z,0.80
2022-09-10T11:56:52.947Z,0.75
2022-09-10T11:59:59.307Z,0.68
2022-09-10T12:03:01.668Z,0.75
2022-09-10T12:05:40.467Z,0.70
2022-09-10T12:08:18.234Z,0.73
2022-09-10T12:10:54.143Z,0.68
2022-09-10T12:13:23.585Z,0.50
2022-09-10T12:15:56.624Z,0.50
2022-09-10T12:18:27.980Z,0.80
2022-09-10T12:20:58.039Z,0.70
2022-09-10T12:23:29.179Z,0.70
2022-09-10T12:26:02.171Z,0.70
2022-09-10T12:29:03.946Z,0.68
2022-09-10T12:32:20.205Z,0.60
2022-09-10T12:34:49.733Z,0.77
2022-09-10T12:37:24.539Z,0.90
2022-09-10T12:40:25.892Z,0.70
2022-09-10T12:42:57.833Z,0.80
2022-09-10T12:45:58.934Z,0.80
2022-09-10T12:48:29.767Z,0.82
2022-09-10T12:51:00.544Z,0.80
2022-09-10T12:54:07.398Z,0.80
2022-09-10T12:57:03.908Z,0.70
2022-09-10T13:00:05.230Z,0.70
2022-09-10T13:02:36.219Z,0.70
2022-09-10T13:05:07.906Z,0.80
2022-09-10T13:07:41.569Z,0.80
2022-09-10T13:10:22.141Z,0.80
2022-09-10T13:12:55.111Z,0.77
2022-09-10T13:15:26.434Z,1.20
2022-09-10T13:18:28.102Z,0.90
2022-09-10T13:20:58.539Z,0.90
2022-09-10T13:23:49.282Z,1.00
2022-09-10T13:26:49.704Z,0.90
2022-09-10T13:29:34.363Z,0.90
2022-09-10T13:32:08.019Z,1.00
2022-09-10T13:35:06.103Z,1.00
2022-09-10T13:38:11.949Z,0.98
2022-09-10T13:41:14.242Z,0.80
2022-09-10T13:44:04.127Z,0.80
2022-09-10T13:46:37.055Z,0.70
2022-09-10T13:49:12.493Z,0.68
2022-09-10T13:51:47.896Z,1.23
2022-09-10T13:54:31.064Z,0.98
2022-09-10T13:57:02.131Z,1.00
2022-09-10T13:59:33.959Z,1.00
2022-09-10T14:02:02.003Z,1.00
2022-09-10T14:04:32.078Z,0.70
2022-09-10T14:07:07.603Z,0.80
2022-09-10T14:09:37.946Z,1.02
2022-09-10T14:12:09.230Z,0.70
2022-09-10T14:14:40.810Z,0.88
2022-09-10T14:17:13.630Z,0.90
2022-09-10T14:19:49.172Z,0.90
2022-09-10T14:22:22.111Z,0.77
2022-09-10T14:24:54.349Z,0.70
2022-09-10T14:27:25.741Z,0.80
2022-09-10T14:29:56.253Z,0.60
2022-09-10T14:32:32.656Z,0.65
2022-09-10T14:35:03.585Z,0.70
2022-09-10T14:37:38.771Z,0.60
2022-09-10T14:40:17.698Z,0.60
2022-09-10T14:42:47.074Z,0.70
2022-09-10T14:45:41.025Z,0.80
2022-09-10T14:48:32.405Z,0.70
2022-09-10T14:51:19.445Z,0.63
2022-09-10T14:53:51.063Z,0.85
2022-09-10T14:56:30.202Z,0.80
2022-09-10T14:59:00.427Z,0.70
2022-09-10T15:01:29.212Z,0.68
2022-09-10T15:03:57.643Z,0.70
2022-09-10T15:06:27.469Z,0.80
2022-09-10T15:08:56.959Z,0.70
2022-09-10T15:11:28.556Z,0.70
2022-09-10T15:13:58.666Z,0.80
2022-09-10T15:16:26.532Z,0.80
2022-09-10T15:18:54.304Z,0.70
2022-09-10T15:21:22.920Z,0.90
2022-09-10T15:23:50.713Z,1.00
2022-09-10T15:26:19.655Z,1.00
2022-09-10T15:28:50.252Z,1.20
2022-09-10T15:31:18.451Z,1.10
2022-09-10T15:33:46.263Z,1.30
2022-09-10T15:36:14.012Z,0.95
2022-09-10T15:38:41.748Z,1.00
2022-09-10T15:41:12.859Z,1.23
2022-09-10T15:43:43.639Z,0.80
2022-09-10T15:46:13.931Z,1.20
2022-09-10T15:48:42.700Z,1.05
2022-09-10T15:51:17.671Z,0.90
2022-09-10T15:53:46.191Z,0.90
2022-09-10T15:56:14.779Z,1.00
2022-09-10T15:58:48.416Z,1.10
2022-09-10T16:01:17.616Z,0.95
2022-09-10T16:03:47.942Z,0.90
2022-09-10T16:06:18.223Z,0.75
2022-09-10T16:08:49.391Z,0.80
2022-09-10T16:11:18.029Z,0.70
2022-09-10T16:13:46.070Z,0.90
2022-09-10T16:16:19.440Z,0.60
2022-09-10T16:18:47.568Z,0.80
2022-09-10T16:21:18.431Z,0.83
2022-09-10T16:23:47.854Z,0.75
2022-09-10T16:26:18.032Z,0.90
2022-09-10T16:28:49.918Z,0.83
2022-09-10T16:31:20.973Z,0.97
2022-09-10T16:33:54.051Z,0.95
2022-09-10T16:36:24.951Z,0.90
2022-09-10T16:38:54.867Z,0.80
2022-09-10T16:41:24.151Z,0.93
2022-09-10T16:43:53.088Z,0.90
2022-09-10T16:46:22.259Z,1.02
2022-09-10T16:48:53.308Z,0.90
2022-09-10T16:51:24.286Z,1.10
2022-09-10T16:53:56.856Z,1.20
2022-09-10T16:56:26.241Z,1.00
2022-09-10T16:58:54.009Z,1.02
2022-09-10T17:01:23.377Z,1.20
2022-09-10T17:03:51.939Z,1.00
2022-09-10T17:06:22.187Z,0.90
2022-09-10T17:08:50.018Z,1.10
2022-09-10T17:11:20.142Z,1.20
2022-09-10T17:13:48.060Z,1.20
2022-09-10T17:16:23.503Z,1.00
2022-09-10T17:18:58.892Z,1.15
2022-09-10T17:21:27.590Z,0.95
2022-09-10T17:23:56.375Z,1.10
2022-09-10T17:26:25.119Z,1.23
2022-09-10T17:28:54.731Z,1.20
2022-09-10T17:31:23.026Z,1.20
2022-09-10T17:33:51.570Z,1.30
2022-09-10T17:36:21.113Z,1.20
2022-09-10T17:38:49.606Z,1.40
2022-09-10T17:41:17.479Z,1.30
2022-09-10T17:43:45.373Z,1.20
2022-09-10T17:46:15.452Z,1.17
2022-09-10T17:48:45.599Z,1.20
2022-09-10T17:51:15.075Z,1.25
2022-09-10T17:53:44.725Z,1.50
2022-09-10T17:56:14.191Z,1.30
2022-09-10T17:58:42.584Z,1.40
2022-09-10T18:01:13.517Z,1.13
2022-09-10T18:03:42.301Z,1.30
2022-09-10T18:06:11.844Z,1.40
2022-09-10T18:08:41.862Z,1.55
2022-09-10T18:11:13.922Z,1.48
2022-09-10T18:13:41.788Z,1.60
2022-09-10T18:16:11.632Z,1.50
2022-09-10T18:18:40.334Z,1.77
2022-09-10T18:21:13.256Z,1.50
2022-09-10T18:23:43.214Z,1.60
2022-09-10T18:26:14.288Z,1.65
2022-09-10T18:28:42.452Z,1.80
2022-09-10T18:31:10.770Z,1.40
2022-09-10T18:33:40.682Z,1.77
2022-09-10T18:36:13.657Z,2.30
2022-09-10T18:38:41.583Z,1.73
2022-09-10T18:41:20.776Z,2.20
2022-09-10T18:43:49.310Z,1.88
2022-09-10T18:46:17.836Z,1.83
2022-09-10T18:48:46.603Z,1.98
2022-09-10T18:51:15.730Z,1.93
2022-09-10T18:53:45.366Z,2.10
2022-09-10T18:56:16.136Z,1.80
2022-09-10T18:58:49.557Z,1.80
2022-09-10T19:01:18.597Z,2.10
2022-09-10T19:03:49.581Z,1.80
2022-09-10T19:06:19.835Z,1.70
2022-09-10T19:08:48.879Z,1.90
2022-09-10T19:11:18.842Z,2.10
2022-09-10T19:13:51.305Z,1.70
2022-09-10T19:16:20.458Z,1.67
2022-09-10T19:18:51.655Z,1.60
2022-09-10T19:21:20.129Z,1.73
2022-09-10T19:23:49.453Z,1.70
2022-09-10T19:26:17.650Z,1.77
2022-09-10T19:28:45.848Z,2.67
2022-09-10T19:31:17.829Z,2.80
2022-09-10T19:33:45.978Z,2.00
2022-09-10T19:36:15.942Z,2.10
2022-09-10T19:38:44.152Z,2.00
2022-09-10T19:41:13.738Z,1.90
2022-09-10T19:43:42.239Z,2.17
2022-09-10T19:46:12.610Z,2.40
2022-09-10T19:48:42.128Z,1.88
2022-09-10T19:51:13.368Z,2.10
2022-09-10T19:53:41.919Z,1.90
2022-09-10T19:56:11.331Z,1.80
2022-09-10T19:58:39.440Z,1.70
2022-09-10T20:01:11.354Z,1.67
2022-09-10T20:03:41.838Z,1.80
2022-09-10T20:06:11.220Z,1.70
2022-09-10T20:08:40.450Z,1.63
2022-09-10T20:11:10.270Z,1.70
2022-09-10T20:13:38.050Z,1.60
2022-09-10T20:16:08.289Z,1.80
2022-09-10T20:18:37.333Z,1.70
2022-09-10T20:21:15.204Z,1.60
2022-09-10T20:23:44.620Z,1.52
2022-09-10T20:26:15.775Z,1.88
2022-09-10T20:28:44.007Z,1.50
2022-09-10T20:31:13.651Z,1.60
2022-09-10T20:33:43.295Z,1.50
2022-09-10T20:36:15.021Z,1.60
2022-09-10T20:38:43.314Z,1.50
2022-09-10T20:41:12.695Z,1.63
2022-09-10T20:43:40.902Z,1.40
2022-09-10T20:46:15.897Z,1.40
2022-09-10T20:48:48.799Z,1.60
2022-09-10T20:51:19.141Z,1.67
2022-09-10T20:53:47.514Z,1.48
2022-09-10T20:56:20.101Z,1.53
2022-09-10T20:58:48.252Z,1.67
2022-09-10T21:01:18.763Z,1.70
2022-09-10T21:03:47.942Z,1.95
2022-09-10T21:06:19.552Z,1.70
2022-09-10T21:08:49.290Z,1.95
2022-09-10T21:11:19.253Z,2.28
2022-09-10T21:13:49.621Z,2.13
2022-09-10T21:16:19.232Z,1.90
2022-09-10T21:18:53.731Z,1.80
2022-09-10T21:21:26.792Z,1.92
2022-09-10T21:23:55.949Z,2.00
2022-09-10T21:26:27.775Z,2.00
2022-09-10T21:28:57.155Z,2.05
2022-09-10T21:31:25.884Z,2.10
2022-09-10T21:33:57.509Z,1.83
2022-09-10T21:36:31.019Z,1.67
2022-09-10T21:39:00.275Z,1.95
2022-09-10T21:41:31.615Z,1.88
2022-09-10T21:44:00.085Z,1.95
2022-09-10T21:46:28.385Z,1.90
2022-09-10T21:48:56.693Z,2.10
2022-09-10T21:51:24.967Z,1.83
2022-09-10T21:53:55.763Z,2.03
2022-09-10T21:56:25.871Z,1.90
2022-09-10T21:58:55.594Z,2.00
2022-09-10T22:01:25.607Z,2.00
2022-09-10T22:03:54.615Z,1.98
2022-09-10T22:06:24.574Z,1.83
2022-09-10T22:08:58.017Z,2.00
2022-09-10T22:11:30.138Z,1.90
2022-09-10T22:14:01.089Z,1.90
2022-09-10T22:16:30.924Z,2.10
2022-09-10T22:19:00.392Z,1.90
2022-09-10T22:21:28.955Z,2.28
2022-09-10T22:23:58.284Z,2.10
2022-09-10T22:26:28.023Z,2.20
2022-09-10T22:28:59.189Z,1.73
2022-09-10T22:31:29.239Z,2.35
2022-09-10T22:33:58.919Z,1.98
2022-09-10T22:36:31.256Z,1.90
2022-09-10T22:39:02.580Z,2.30
2022-09-10T22:41:31.790Z,1.88
2022-09-10T22:43:59.743Z,2.00
2022-09-10T22:46:28.361Z,2.10
2022-09-10T22:48:57.077Z,2.20
2022-09-10T22:51:26.762Z,1.98
2022-09-10T22:53:56.141Z,2.03
2022-09-10T22:56:26.999Z,2.05
2022-09-10T22:58:55.658Z,2.05
2022-09-10T23:01:25.354Z,2.17
2022-09-10T23:03:53.236Z,1.90
2022-09-10T23:06:23.025Z,1.92
2022-09-10T23:08:53.067Z,2.00
2022-09-10T23:11:23.039Z,2.00
2022-09-10T23:13:54.355Z,1.55
2022-09-10T23:16:24.243Z,1.80
2022-09-10T23:18:53.179Z,1.70
2022-09-10T23:21:21.808Z,1.75
2022-09-10T23:23:51.083Z,1.70
2022-09-10T23:26:19.782Z,1.55
2022-09-10T23:28:47.598Z,1.52
2022-09-10T23:31:19.093Z,1.80
2022-09-10T23:33:49.305Z,1.42
2022-09-10T23:36:17.014Z,1.70
2022-09-10T23:38:44.887Z,1.50
2022-09-10T23:41:13.551Z,1.58
2022-09-10T23:43:41.680Z,1.20
2022-09-10T23:46:10.834Z,1.55
2022-09-10T23:48:42.384Z,1.50
2022-09-10T23:51:13.531Z,1.30
2022-09-10T23:53:42.522Z,1.17
2022-09-10T23:56:10.436Z,1.43
2022-09-10T23:58:39.070Z,1.40
